sensor_id;sensor_type;location;lat;lon;timestamp;temperature;humidity
21734;DHT22;11029;47.820;10.534;2023-04-25T00:01:29;5.80;71.90
21734;DHT22;11029;47.820;10.534;2023-04-25T00:03:55;6.00;71.80
21734;DHT22;11029;47.820;10.534;2023-04-25T00:06:24;6.00;71.60
21734;DHT22;11029;47.820;10.534;2023-04-25T00:08:53;6.10;71.30
21734;DHT22;11029;47.820;10.534;2023-04-25T00:11:20;6.00;71.00
21734;DHT22;11029;47.820;10.534;2023-04-25T00:13:47;6.00;71.30
21734;DHT22;11029;47.820;10.534;2023-04-25T00:16:16;6.00;71.00
21734;DHT22;11029;47.820;10.534;2023-04-25T00:18:43;6.00;71.00
21734;DHT22;11029;47.820;10.534;2023-04-25T00:21:10;6.10;71.30
21734;DHT22;11029;47.820;10.534;2023-04-25T00:23:37;6.10;71.20
21734;DHT22;11029;47.820;10.534;2023-04-25T00:26:05;6.10;70.70
21734;DHT22;11029;47.820;10.534;2023-04-25T00:28:31;6.10;71.10
21734;DHT22;11029;47.820;10.534;2023-04-25T00:30:58;6.10;70.60
21734;DHT22;11029;47.820;10.534;2023-04-25T00:33:25;6.10;71.00
21734;DHT22;11029;47.820;10.534;2023-04-25T00:35:52;6.10;70.90
21734;DHT22;11029;47.820;10.534;2023-04-25T00:38:18;6.10;70.90
21734;DHT22;11029;47.820;10.534;2023-04-25T00:40:45;6.10;70.80
21734;DHT22;11029;47.820;10.534;2023-04-25T00:43:12;6.10;71.10
21734;DHT22;11029;47.820;10.534;2023-04-25T00:45:39;6.10;71.10
21734;DHT22;11029;47.820;10.534;2023-04-25T00:48:06;6.10;71.50
21734;DHT22;11029;47.820;10.534;2023-04-25T00:50:34;6.00;71.80
21734;DHT22;11029;47.820;10.534;2023-04-25T00:53:01;6.10;71.50
21734;DHT22;11029;47.820;10.534;2023-04-25T00:55:30;6.00;71.90
21734;DHT22;11029;47.820;10.534;2023-04-25T00:57:58;6.00;71.70
21734;DHT22;11029;47.820;10.534;2023-04-25T01:00:24;6.00;72.50
21734;DHT22;11029;47.820;10.534;2023-04-25T01:02:52;6.00;71.60
21734;DHT22;11029;47.820;10.534;2023-04-25T01:05:35;6.00;71.60
21734;DHT22;11029;47.820;10.534;2023-04-25T01:08:02;6.00;72.00
21734;DHT22;11029;47.820;10.534;2023-04-25T01:10:29;5.90;72.20
21734;DHT22;11029;47.820;10.534;2023-04-25T01:12:56;6.00;72.60
21734;DHT22;11029;47.820;10.534;2023-04-25T01:15:23;6.00;72.40
21734;DHT22;11029;47.820;10.534;2023-04-25T01:17:50;5.90;73.00
21734;DHT22;11029;47.820;10.534;2023-04-25T01:20:17;6.00;72.80
21734;DHT22;11029;47.820;10.534;2023-04-25T01:22:44;6.00;73.40
21734;DHT22;11029;47.820;10.534;2023-04-25T01:25:11;5.90;73.10
21734;DHT22;11029;47.820;10.534;2023-04-25T01:27:38;6.00;74.00
21734;DHT22;11029;47.820;10.534;2023-04-25T01:30:06;6.10;73.60
21734;DHT22;11029;47.820;10.534;2023-04-25T01:32:33;6.10;73.50
21734;DHT22;11029;47.820;10.534;2023-04-25T01:35:06;6.10;73.60
21734;DHT22;11029;47.820;10.534;2023-04-25T01:37:40;6.10;73.50
21734;DHT22;11029;47.820;10.534;2023-04-25T01:40:09;6.10;73.80
21734;DHT22;11029;47.820;10.534;2023-04-25T01:42:40;6.00;73.00
21734;DHT22;11029;47.820;10.534;2023-04-25T01:45:08;5.80;73.10
21734;DHT22;11029;47.820;10.534;2023-04-25T01:47:35;5.70;73.10
21734;DHT22;11029;47.820;10.534;2023-04-25T01:50:04;5.70;73.70
21734;DHT22;11029;47.820;10.534;2023-04-25T01:52:31;5.80;73.90
21734;DHT22;11029;47.820;10.534;2023-04-25T01:55:01;5.90;73.90
21734;DHT22;11029;47.820;10.534;2023-04-25T01:57:31;5.90;73.90
21734;DHT22;11029;47.820;10.534;2023-04-25T02:00:01;5.80;73.50
21734;DHT22;11029;47.820;10.534;2023-04-25T02:02:38;5.80;74.10
21734;DHT22;11029;47.820;10.534;2023-04-25T02:05:13;5.80;74.30
21734;DHT22;11029;47.820;10.534;2023-04-25T02:07:42;5.90;74.00
21734;DHT22;11029;47.820;10.534;2023-04-25T02:10:09;5.90;73.80
21734;DHT22;11029;47.820;10.534;2023-04-25T02:12:47;5.90;74.00
21734;DHT22;11029;47.820;10.534;2023-04-25T02:15:23;5.90;73.70
21734;DHT22;11029;47.820;10.534;2023-04-25T02:17:54;5.70;73.80
21734;DHT22;11029;47.820;10.534;2023-04-25T02:20:23;5.60;74.30
21734;DHT22;11029;47.820;10.534;2023-04-25T02:22:50;5.50;76.50
21734;DHT22;11029;47.820;10.534;2023-04-25T02:25:18;5.10;73.90
21734;DHT22;11029;47.820;10.534;2023-04-25T02:27:47;4.30;75.80
21734;DHT22;11029;47.820;10.534;2023-04-25T02:30:14;3.80;76.10
21734;DHT22;11029;47.820;10.534;2023-04-25T02:32:41;3.50;79.50
21734;DHT22;11029;47.820;10.534;2023-04-25T02:35:08;3.40;80.70
21734;DHT22;11029;47.820;10.534;2023-04-25T02:37:37;3.40;79.40
21734;DHT22;11029;47.820;10.534;2023-04-25T02:40:06;3.70;77.90
21734;DHT22;11029;47.820;10.534;2023-04-25T02:42:33;3.80;77.70
21734;DHT22;11029;47.820;10.534;2023-04-25T02:44:59;4.00;77.90
21734;DHT22;11029;47.820;10.534;2023-04-25T02:47:26;4.00;78.50
21734;DHT22;11029;47.820;10.534;2023-04-25T02:49:53;4.00;78.00
21734;DHT22;11029;47.820;10.534;2023-04-25T02:52:20;3.90;78.20
21734;DHT22;11029;47.820;10.534;2023-04-25T02:54:55;3.90;78.90
21734;DHT22;11029;47.820;10.534;2023-04-25T02:57:21;3.90;79.70
21734;DHT22;11029;47.820;10.534;2023-04-25T02:59:48;3.90;80.20
21734;DHT22;11029;47.820;10.534;2023-04-25T03:02:15;3.90;80.60
21734;DHT22;11029;47.820;10.534;2023-04-25T03:04:42;3.90;81.00
21734;DHT22;11029;47.820;10.534;2023-04-25T03:07:10;3.90;81.80
21734;DHT22;11029;47.820;10.534;2023-04-25T03:09:37;4.00;81.60
21734;DHT22;11029;47.820;10.534;2023-04-25T03:12:04;4.00;81.10
21734;DHT22;11029;47.820;10.534;2023-04-25T03:14:33;4.10;81.00
21734;DHT22;11029;47.820;10.534;2023-04-25T03:16:59;4.30;81.60
21734;DHT22;11029;47.820;10.534;2023-04-25T03:19:26;4.30;81.90
21734;DHT22;11029;47.820;10.534;2023-04-25T03:21:53;4.40;81.80
21734;DHT22;11029;47.820;10.534;2023-04-25T03:24:20;4.50;81.20
21734;DHT22;11029;47.820;10.534;2023-04-25T03:26:47;4.30;81.80
21734;DHT22;11029;47.820;10.534;2023-04-25T03:29:14;4.40;82.10
21734;DHT22;11029;47.820;10.534;2023-04-25T03:31:42;4.20;81.60
21734;DHT22;11029;47.820;10.534;2023-04-25T03:34:08;4.00;81.70
21734;DHT22;11029;47.820;10.534;2023-04-25T03:36:38;3.80;82.10
21734;DHT22;11029;47.820;10.534;2023-04-25T03:39:07;3.60;82.90
21734;DHT22;11029;47.820;10.534;2023-04-25T03:41:34;3.50;83.60
21734;DHT22;11029;47.820;10.534;2023-04-25T03:44:05;3.50;83.80
21734;DHT22;11029;47.820;10.534;2023-04-25T03:46:32;3.50;84.10
21734;DHT22;11029;47.820;10.534;2023-04-25T03:48:59;3.50;84.10
21734;DHT22;11029;47.820;10.534;2023-04-25T03:51:39;3.60;83.70
21734;DHT22;11029;47.820;10.534;2023-04-25T03:54:06;3.60;82.80
21734;DHT22;11029;47.820;10.534;2023-04-25T03:56:50;3.60;82.70
21734;DHT22;11029;47.820;10.534;2023-04-25T03:59:21;3.60;82.90
21734;DHT22;11029;47.820;10.534;2023-04-25T04:01:47;3.70;82.70
21734;DHT22;11029;47.820;10.534;2023-04-25T04:04:14;3.70;82.20
21734;DHT22;11029;47.820;10.534;2023-04-25T04:06:42;3.60;83.10
21734;DHT22;11029;47.820;10.534;2023-04-25T04:09:15;3.60;84.10
21734;DHT22;11029;47.820;10.534;2023-04-25T04:11:43;3.60;84.20
21734;DHT22;11029;47.820;10.534;2023-04-25T04:14:09;3.70;84.50
21734;DHT22;11029;47.820;10.534;2023-04-25T04:16:41;3.80;84.20
21734;DHT22;11029;47.820;10.534;2023-04-25T04:19:08;3.90;83.50
21734;DHT22;11029;47.820;10.534;2023-04-25T04:21:35;4.00;83.60
21734;DHT22;11029;47.820;10.534;2023-04-25T04:24:03;4.00;83.10
21734;DHT22;11029;47.820;10.534;2023-04-25T04:26:38;4.00;83.20
21734;DHT22;11029;47.820;10.534;2023-04-25T04:29:11;4.10;83.20
21734;DHT22;11029;47.820;10.534;2023-04-25T04:31:42;4.20;83.30
21734;DHT22;11029;47.820;10.534;2023-04-25T04:34:10;4.30;83.00
21734;DHT22;11029;47.820;10.534;2023-04-25T04:36:38;4.30;82.60
21734;DHT22;11029;47.820;10.534;2023-04-25T04:39:06;4.30;82.10
21734;DHT22;11029;47.820;10.534;2023-04-25T04:41:56;4.40;82.30
21734;DHT22;11029;47.820;10.534;2023-04-25T04:44:37;4.40;82.30
21734;DHT22;11029;47.820;10.534;2023-04-25T04:47:24;4.30;82.00
21734;DHT22;11029;47.820;10.534;2023-04-25T04:50:11;4.20;82.30
21734;DHT22;11029;47.820;10.534;2023-04-25T04:52:53;4.20;82.20
21734;DHT22;11029;47.820;10.534;2023-04-25T04:55:35;4.30;82.10
21734;DHT22;11029;47.820;10.534;2023-04-25T04:58:22;4.30;82.30
21734;DHT22;11029;47.820;10.534;2023-04-25T05:01:08;4.20;80.90
21734;DHT22;11029;47.820;10.534;2023-04-25T05:03:54;4.10;81.50
21734;DHT22;11029;47.820;10.534;2023-04-25T05:06:41;4.10;82.30
21734;DHT22;11029;47.820;10.534;2023-04-25T05:09:26;4.00;82.60
21734;DHT22;11029;47.820;10.534;2023-04-25T05:12:13;4.10;83.10
21734;DHT22;11029;47.820;10.534;2023-04-25T05:15:06;4.10;83.40
21734;DHT22;11029;47.820;10.534;2023-04-25T05:17:51;4.10;84.00
21734;DHT22;11029;47.820;10.534;2023-04-25T05:20:31;4.30;84.20
21734;DHT22;11029;47.820;10.534;2023-04-25T05:23:18;4.40;84.30
21734;DHT22;11029;47.820;10.534;2023-04-25T05:25:44;4.50;83.80
21734;DHT22;11029;47.820;10.534;2023-04-25T05:28:34;4.70;84.30
21734;DHT22;11029;47.820;10.534;2023-04-25T05:31:27;4.70;83.40
21734;DHT22;11029;47.820;10.534;2023-04-25T05:34:23;4.80;83.20
21734;DHT22;11029;47.820;10.534;2023-04-25T05:36:54;4.80;83.30
21734;DHT22;11029;47.820;10.534;2023-04-25T05:39:22;4.90;83.30
21734;DHT22;11029;47.820;10.534;2023-04-25T05:42:07;4.90;83.10
21734;DHT22;11029;47.820;10.534;2023-04-25T05:44:55;5.00;82.70
21734;DHT22;11029;47.820;10.534;2023-04-25T05:47:39;5.00;82.50
21734;DHT22;11029;47.820;10.534;2023-04-25T05:50:11;5.10;82.60
21734;DHT22;11029;47.820;10.534;2023-04-25T05:52:51;5.20;82.50
21734;DHT22;11029;47.820;10.534;2023-04-25T05:55:28;5.10;81.70
21734;DHT22;11029;47.820;10.534;2023-04-25T05:57:57;5.20;81.10
21734;DHT22;11029;47.820;10.534;2023-04-25T06:00:24;5.30;81.50
21734;DHT22;11029;47.820;10.534;2023-04-25T06:02:51;5.30;80.00
21734;DHT22;11029;47.820;10.534;2023-04-25T06:05:19;5.30;79.70
21734;DHT22;11029;47.820;10.534;2023-04-25T06:07:47;5.30;79.70
21734;DHT22;11029;47.820;10.534;2023-04-25T06:10:14;5.40;79.20
21734;DHT22;11029;47.820;10.534;2023-04-25T06:12:41;5.40;79.20
21734;DHT22;11029;47.820;10.534;2023-04-25T06:15:09;5.50;80.00
21734;DHT22;11029;47.820;10.534;2023-04-25T06:17:53;5.50;79.20
21734;DHT22;11029;47.820;10.534;2023-04-25T06:20:20;5.50;80.10
21734;DHT22;11029;47.820;10.534;2023-04-25T06:22:50;5.50;79.40
21734;DHT22;11029;47.820;10.534;2023-04-25T06:25:20;5.50;78.00
21734;DHT22;11029;47.820;10.534;2023-04-25T06:27:46;5.50;78.50
21734;DHT22;11029;47.820;10.534;2023-04-25T06:30:13;5.50;78.30
21734;DHT22;11029;47.820;10.534;2023-04-25T06:32:40;5.60;77.90
21734;DHT22;11029;47.820;10.534;2023-04-25T06:35:08;5.70;78.00
21734;DHT22;11029;47.820;10.534;2023-04-25T06:37:35;5.80;77.80
21734;DHT22;11029;47.820;10.534;2023-04-25T06:40:02;6.00;77.60
21734;DHT22;11029;47.820;10.534;2023-04-25T06:42:28;6.10;76.40
21734;DHT22;11029;47.820;10.534;2023-04-25T06:44:58;6.10;76.10
21734;DHT22;11029;47.820;10.534;2023-04-25T06:47:25;6.10;75.30
21734;DHT22;11029;47.820;10.534;2023-04-25T06:49:52;6.20;75.30
21734;DHT22;11029;47.820;10.534;2023-04-25T06:52:19;6.30;75.80
21734;DHT22;11029;47.820;10.534;2023-04-25T06:54:47;6.40;73.80
21734;DHT22;11029;47.820;10.534;2023-04-25T06:57:32;6.40;73.60
21734;DHT22;11029;47.820;10.534;2023-04-25T07:00:14;6.40;73.70
21734;DHT22;11029;47.820;10.534;2023-04-25T07:02:41;6.60;73.10
21734;DHT22;11029;47.820;10.534;2023-04-25T07:05:10;6.70;70.20
21734;DHT22;11029;47.820;10.534;2023-04-25T07:07:36;6.80;71.00
21734;DHT22;11029;47.820;10.534;2023-04-25T07:10:03;6.70;68.90
21734;DHT22;11029;47.820;10.534;2023-04-25T07:12:30;6.80;70.90
21734;DHT22;11029;47.820;10.534;2023-04-25T07:14:57;7.00;70.00
21734;DHT22;11029;47.820;10.534;2023-04-25T07:17:24;7.00;69.10
21734;DHT22;11029;47.820;10.534;2023-04-25T07:19:51;7.10;68.40
21734;DHT22;11029;47.820;10.534;2023-04-25T07:22:17;6.90;65.90
21734;DHT22;11029;47.820;10.534;2023-04-25T07:24:45;7.00;67.60
21734;DHT22;11029;47.820;10.534;2023-04-25T07:27:17;7.10;66.90
21734;DHT22;11029;47.820;10.534;2023-04-25T07:29:55;7.00;67.10
21734;DHT22;11029;47.820;10.534;2023-04-25T07:32:22;6.90;66.50
21734;DHT22;11029;47.820;10.534;2023-04-25T07:34:49;6.90;67.30
21734;DHT22;11029;47.820;10.534;2023-04-25T07:37:17;7.20;68.20
21734;DHT22;11029;47.820;10.534;2023-04-25T07:40:04;7.30;63.40
21734;DHT22;11029;47.820;10.534;2023-04-25T07:42:32;7.40;64.80
21734;DHT22;11029;47.820;10.534;2023-04-25T07:44:59;7.40;64.90
21734;DHT22;11029;47.820;10.534;2023-04-25T07:47:26;7.40;63.20
21734;DHT22;11029;47.820;10.534;2023-04-25T07:49:53;7.50;64.80
21734;DHT22;11029;47.820;10.534;2023-04-25T07:52:20;7.70;63.60
21734;DHT22;11029;47.820;10.534;2023-04-25T07:54:52;7.90;64.10
21734;DHT22;11029;47.820;10.534;2023-04-25T07:57:26;7.50;62.00
21734;DHT22;11029;47.820;10.534;2023-04-25T07:59:55;7.50;63.10
21734;DHT22;11029;47.820;10.534;2023-04-25T08:02:22;7.70;63.40
21734;DHT22;11029;47.820;10.534;2023-04-25T08:04:49;7.90;64.20
21734;DHT22;11029;47.820;10.534;2023-04-25T08:07:17;7.90;62.80
21734;DHT22;11029;47.820;10.534;2023-04-25T08:09:49;7.60;63.50
21734;DHT22;11029;47.820;10.534;2023-04-25T08:12:24;7.30;64.50
21734;DHT22;11029;47.820;10.534;2023-04-25T08:14:51;7.30;64.50
21734;DHT22;11029;47.820;10.534;2023-04-25T08:17:18;7.50;65.60
21734;DHT22;11029;47.820;10.534;2023-04-25T08:19:45;7.60;64.40
21734;DHT22;11029;47.820;10.534;2023-04-25T08:22:21;7.80;63.60
21734;DHT22;11029;47.820;10.534;2023-04-25T08:25:10;8.00;63.20
21734;DHT22;11029;47.820;10.534;2023-04-25T08:27:38;8.30;63.20
21734;DHT22;11029;47.820;10.534;2023-04-25T08:30:06;8.20;61.00
21734;DHT22;11029;47.820;10.534;2023-04-25T08:32:35;8.20;61.20
21734;DHT22;11029;47.820;10.534;2023-04-25T08:35:22;8.20;63.40
21734;DHT22;11029;47.820;10.534;2023-04-25T08:37:50;8.00;62.30
21734;DHT22;11029;47.820;10.534;2023-04-25T08:40:19;7.90;63.10
21734;DHT22;11029;47.820;10.534;2023-04-25T08:42:57;7.90;63.50
21734;DHT22;11029;47.820;10.534;2023-04-25T08:45:26;7.70;64.50
21734;DHT22;11029;47.820;10.534;2023-04-25T08:47:54;7.60;63.20
21734;DHT22;11029;47.820;10.534;2023-04-25T08:50:24;7.40;64.70
21734;DHT22;11029;47.820;10.534;2023-04-25T08:52:53;7.10;65.00
21734;DHT22;11029;47.820;10.534;2023-04-25T08:55:21;7.00;64.80
21734;DHT22;11029;47.820;10.534;2023-04-25T08:57:54;7.20;66.70
21734;DHT22;11029;47.820;10.534;2023-04-25T09:00:22;7.30;68.00
21734;DHT22;11029;47.820;10.534;2023-04-25T09:02:49;7.50;66.50
21734;DHT22;11029;47.820;10.534;2023-04-25T09:05:16;7.60;66.70
21734;DHT22;11029;47.820;10.534;2023-04-25T09:07:47;7.80;65.90
21734;DHT22;11029;47.820;10.534;2023-04-25T09:10:16;7.90;64.20
21734;DHT22;11029;47.820;10.534;2023-04-25T09:12:43;7.80;64.10
21734;DHT22;11029;47.820;10.534;2023-04-25T09:15:12;7.80;64.10
21734;DHT22;11029;47.820;10.534;2023-04-25T09:17:58;8.00;64.40
21734;DHT22;11029;47.820;10.534;2023-04-25T09:20:30;7.10;62.30
21734;DHT22;11029;47.820;10.534;2023-04-25T09:23:02;6.80;62.20
21734;DHT22;11029;47.820;10.534;2023-04-25T09:25:35;6.70;62.60
21734;DHT22;11029;47.820;10.534;2023-04-25T09:28:06;6.80;63.30
21734;DHT22;11029;47.820;10.534;2023-04-25T09:30:35;6.80;64.40
21734;DHT22;11029;47.820;10.534;2023-04-25T09:33:10;6.90;64.60
21734;DHT22;11029;47.820;10.534;2023-04-25T09:35:42;6.90;66.00
21734;DHT22;11029;47.820;10.534;2023-04-25T09:38:15;6.80;64.30
21734;DHT22;11029;47.820;10.534;2023-04-25T09:40:51;6.20;68.00
21734;DHT22;11029;47.820;10.534;2023-04-25T09:43:29;5.80;70.50
21734;DHT22;11029;47.820;10.534;2023-04-25T09:45:56;5.50;72.20
21734;DHT22;11029;47.820;10.534;2023-04-25T09:48:28;4.90;73.90
21734;DHT22;11029;47.820;10.534;2023-04-25T09:53:40;4.80;75.30
21734;DHT22;11029;47.820;10.534;2023-04-25T09:56:13;4.80;76.40
21734;DHT22;11029;47.820;10.534;2023-04-25T09:58:40;4.80;78.40
21734;DHT22;11029;47.820;10.534;2023-04-25T10:01:10;4.90;79.80
21734;DHT22;11029;47.820;10.534;2023-04-25T10:03:50;4.90;80.40
21734;DHT22;11029;47.820;10.534;2023-04-25T10:06:34;4.90;80.70
21734;DHT22;11029;47.820;10.534;2023-04-25T10:09:02;5.00;81.50
21734;DHT22;11029;47.820;10.534;2023-04-25T10:11:30;5.00;80.60
21734;DHT22;11029;47.820;10.534;2023-04-25T10:14:00;5.00;80.60
21734;DHT22;11029;47.820;10.534;2023-04-25T10:16:27;4.90;78.80
21734;DHT22;11029;47.820;10.534;2023-04-25T10:19:04;4.90;79.40
21734;DHT22;11029;47.820;10.534;2023-04-25T10:21:31;5.00;79.50
21734;DHT22;11029;47.820;10.534;2023-04-25T10:23:59;5.00;79.60
21734;DHT22;11029;47.820;10.534;2023-04-25T10:26:26;5.20;80.90
21734;DHT22;11029;47.820;10.534;2023-04-25T10:29:03;5.40;80.00
21734;DHT22;11029;47.820;10.534;2023-04-25T10:31:30;5.40;78.90
21734;DHT22;11029;47.820;10.534;2023-04-25T10:33:59;5.20;80.60
21734;DHT22;11029;47.820;10.534;2023-04-25T10:36:26;5.00;79.40
21734;DHT22;11029;47.820;10.534;2023-04-25T10:39:05;4.90;81.00
21734;DHT22;11029;47.820;10.534;2023-04-25T10:41:46;4.90;81.30
21734;DHT22;11029;47.820;10.534;2023-04-25T10:44:13;4.90;80.80
21734;DHT22;11029;47.820;10.534;2023-04-25T10:46:40;5.00;80.90
21734;DHT22;11029;47.820;10.534;2023-04-25T10:49:08;5.00;80.00
21734;DHT22;11029;47.820;10.534;2023-04-25T10:51:41;5.00;81.10
21734;DHT22;11029;47.820;10.534;2023-04-25T10:54:22;4.90;80.40
21734;DHT22;11029;47.820;10.534;2023-04-25T10:56:51;5.00;82.10
21734;DHT22;11029;47.820;10.534;2023-04-25T10:59:19;5.00;80.30
21734;DHT22;11029;47.820;10.534;2023-04-25T11:01:53;5.00;81.30
21734;DHT22;11029;47.820;10.534;2023-04-25T11:04:32;5.00;81.30
21734;DHT22;11029;47.820;10.534;2023-04-25T11:09:39;5.00;81.80
21734;DHT22;11029;47.820;10.534;2023-04-25T11:12:08;4.90;80.90
21734;DHT22;11029;47.820;10.534;2023-04-25T11:14:36;4.90;82.60
21734;DHT22;11029;47.820;10.534;2023-04-25T11:17:02;4.90;81.20
21734;DHT22;11029;47.820;10.534;2023-04-25T11:19:29;4.80;82.70
21734;DHT22;11029;47.820;10.534;2023-04-25T11:21:58;4.80;82.30
21734;DHT22;11029;47.820;10.534;2023-04-25T11:24:30;4.70;81.30
21734;DHT22;11029;47.820;10.534;2023-04-25T11:27:01;4.50;82.80
21734;DHT22;11029;47.820;10.534;2023-04-25T11:29:31;4.50;81.80
21734;DHT22;11029;47.820;10.534;2023-04-25T11:31:59;4.40;82.60
21734;DHT22;11029;47.820;10.534;2023-04-25T11:34:28;4.30;83.20
21734;DHT22;11029;47.820;10.534;2023-04-25T11:36:57;4.40;82.60
21734;DHT22;11029;47.820;10.534;2023-04-25T11:39:25;4.60;81.80
21734;DHT22;11029;47.820;10.534;2023-04-25T11:41:52;4.70;82.70
21734;DHT22;11029;47.820;10.534;2023-04-25T11:44:20;4.90;82.60
21734;DHT22;11029;47.820;10.534;2023-04-25T11:46:47;5.10;81.80
21734;DHT22;11029;47.820;10.534;2023-04-25T11:49:15;5.20;81.10
21734;DHT22;11029;47.820;10.534;2023-04-25T11:51:45;5.20;80.60
21734;DHT22;11029;47.820;10.534;2023-04-25T11:54:13;5.20;80.90
21734;DHT22;11029;47.820;10.534;2023-04-25T11:56:43;5.00;81.20
21734;DHT22;11029;47.820;10.534;2023-04-25T11:59:10;4.80;81.90
21734;DHT22;11029;47.820;10.534;2023-04-25T12:01:40;4.80;82.40
21734;DHT22;11029;47.820;10.534;2023-04-25T12:06:42;4.70;83.40
21734;DHT22;11029;47.820;10.534;2023-04-25T12:09:11;4.60;83.20
21734;DHT22;11029;47.820;10.534;2023-04-25T12:11:43;4.50;83.20
21734;DHT22;11029;47.820;10.534;2023-04-25T12:14:11;4.40;82.90
21734;DHT22;11029;47.820;10.534;2023-04-25T12:16:45;4.30;84.00
21734;DHT22;11029;47.820;10.534;2023-04-25T12:19:16;4.20;84.40
21734;DHT22;11029;47.820;10.534;2023-04-25T12:21:44;4.20;85.30
21734;DHT22;11029;47.820;10.534;2023-04-25T12:24:25;4.30;85.40
21734;DHT22;11029;47.820;10.534;2023-04-25T12:27:02;4.20;84.00
21734;DHT22;11029;47.820;10.534;2023-04-25T12:29:32;4.10;84.40
21734;DHT22;11029;47.820;10.534;2023-04-25T12:32:13;4.10;84.80
21734;DHT22;11029;47.820;10.534;2023-04-25T12:34:40;4.00;83.70
21734;DHT22;11029;47.820;10.534;2023-04-25T12:37:07;3.90;83.00
21734;DHT22;11029;47.820;10.534;2023-04-25T12:39:34;3.80;83.60
21734;DHT22;11029;47.820;10.534;2023-04-25T12:42:01;3.90;84.30
21734;DHT22;11029;47.820;10.534;2023-04-25T12:44:27;4.10;84.10
21734;DHT22;11029;47.820;10.534;2023-04-25T12:46:54;4.30;84.90
21734;DHT22;11029;47.820;10.534;2023-04-25T12:49:21;4.60;84.40
21734;DHT22;11029;47.820;10.534;2023-04-25T12:51:48;4.90;84.50
21734;DHT22;11029;47.820;10.534;2023-04-25T12:54:15;5.30;83.10
21734;DHT22;11029;47.820;10.534;2023-04-25T12:56:42;5.50;83.40
21734;DHT22;11029;47.820;10.534;2023-04-25T12:59:09;5.70;81.80
21734;DHT22;11029;47.820;10.534;2023-04-25T13:01:36;5.60;79.70
21734;DHT22;11029;47.820;10.534;2023-04-25T13:04:03;5.50;81.70
21734;DHT22;11029;47.820;10.534;2023-04-25T13:06:30;5.50;80.70
21734;DHT22;11029;47.820;10.534;2023-04-25T13:08:57;5.50;82.10
21734;DHT22;11029;47.820;10.534;2023-04-25T13:11:24;5.60;81.60
21734;DHT22;11029;47.820;10.534;2023-04-25T13:13:51;5.70;80.80
21734;DHT22;11029;47.820;10.534;2023-04-25T13:16:18;5.90;80.90
21734;DHT22;11029;47.820;10.534;2023-04-25T13:18:47;6.10;80.50
21734;DHT22;11029;47.820;10.534;2023-04-25T13:21:14;6.30;80.60
21734;DHT22;11029;47.820;10.534;2023-04-25T13:23:41;6.10;78.30
21734;DHT22;11029;47.820;10.534;2023-04-25T13:26:09;5.90;79.30
21734;DHT22;11029;47.820;10.534;2023-04-25T13:28:36;5.70;78.40
21734;DHT22;11029;47.820;10.534;2023-04-25T13:31:03;5.80;78.60
21734;DHT22;11029;47.820;10.534;2023-04-25T13:33:30;5.80;79.00
21734;DHT22;11029;47.820;10.534;2023-04-25T13:35:57;6.10;80.30
21734;DHT22;11029;47.820;10.534;2023-04-25T13:38:24;6.10;77.30
21734;DHT22;11029;47.820;10.534;2023-04-25T13:40:52;6.30;77.30
21734;DHT22;11029;47.820;10.534;2023-04-25T13:43:20;6.20;76.40
21734;DHT22;11029;47.820;10.534;2023-04-25T13:45:49;6.20;78.50
21734;DHT22;11029;47.820;10.534;2023-04-25T13:48:16;6.30;76.30
21734;DHT22;11029;47.820;10.534;2023-04-25T13:50:43;6.30;76.00
21734;DHT22;11029;47.820;10.534;2023-04-25T13:53:09;6.30;78.00
21734;DHT22;11029;47.820;10.534;2023-04-25T13:55:36;6.40;77.70
21734;DHT22;11029;47.820;10.534;2023-04-25T13:58:03;6.40;80.20
21734;DHT22;11029;47.820;10.534;2023-04-25T14:00:36;6.50;76.90
21734;DHT22;11029;47.820;10.534;2023-04-25T14:03:05;6.40;76.30
21734;DHT22;11029;47.820;10.534;2023-04-25T14:05:35;6.20;77.10
21734;DHT22;11029;47.820;10.534;2023-04-25T14:08:06;6.30;78.30
21734;DHT22;11029;47.820;10.534;2023-04-25T14:10:33;6.30;75.00
21734;DHT22;11029;47.820;10.534;2023-04-25T14:13:00;6.20;75.80
21734;DHT22;11029;47.820;10.534;2023-04-25T14:15:30;6.40;78.20
21734;DHT22;11029;47.820;10.534;2023-04-25T14:17:57;6.80;76.20
21734;DHT22;11029;47.820;10.534;2023-04-25T14:20:24;7.00;75.70
21734;DHT22;11029;47.820;10.534;2023-04-25T14:22:51;7.20;73.30
21734;DHT22;11029;47.820;10.534;2023-04-25T14:25:20;7.00;73.50
21734;DHT22;11029;47.820;10.534;2023-04-25T14:27:47;6.70;74.70
21734;DHT22;11029;47.820;10.534;2023-04-25T14:30:20;6.60;75.70
21734;DHT22;11029;47.820;10.534;2023-04-25T14:32:50;6.50;74.90
21734;DHT22;11029;47.820;10.534;2023-04-25T14:35:17;6.50;76.00
21734;DHT22;11029;47.820;10.534;2023-04-25T14:37:44;6.60;76.50
21734;DHT22;11029;47.820;10.534;2023-04-25T14:40:12;6.90;75.40
21734;DHT22;11029;47.820;10.534;2023-04-25T14:42:40;6.90;74.50
21734;DHT22;11029;47.820;10.534;2023-04-25T14:45:08;6.70;74.10
21734;DHT22;11029;47.820;10.534;2023-04-25T14:47:38;6.50;73.90
21734;DHT22;11029;47.820;10.534;2023-04-25T14:50:06;6.20;74.90
21734;DHT22;11029;47.820;10.534;2023-04-25T14:52:33;6.10;76.00
21734;DHT22;11029;47.820;10.534;2023-04-25T14:55:00;6.10;76.60
21734;DHT22;11029;47.820;10.534;2023-04-25T14:57:34;6.10;77.20
21734;DHT22;11029;47.820;10.534;2023-04-25T15:00:02;6.10;77.40
21734;DHT22;11029;47.820;10.534;2023-04-25T15:02:31;6.10;77.40
21734;DHT22;11029;47.820;10.534;2023-04-25T15:04:58;6.00;77.30
21734;DHT22;11029;47.820;10.534;2023-04-25T15:07:25;5.70;78.90
21734;DHT22;11029;47.820;10.534;2023-04-25T15:09:52;5.60;78.40
21734;DHT22;11029;47.820;10.534;2023-04-25T15:12:19;5.70;80.30
21734;DHT22;11029;47.820;10.534;2023-04-25T15:14:47;5.60;79.70
21734;DHT22;11029;47.820;10.534;2023-04-25T15:17:13;5.70;79.30
21734;DHT22;11029;47.820;10.534;2023-04-25T15:19:41;5.80;79.10
21734;DHT22;11029;47.820;10.534;2023-04-25T15:22:08;5.80;78.80
21734;DHT22;11029;47.820;10.534;2023-04-25T15:24:34;5.90;79.70
21734;DHT22;11029;47.820;10.534;2023-04-25T15:27:01;5.90;78.50
21734;DHT22;11029;47.820;10.534;2023-04-25T15:29:29;5.90;77.60
21734;DHT22;11029;47.820;10.534;2023-04-25T15:31:56;5.90;77.40
21734;DHT22;11029;47.820;10.534;2023-04-25T15:34:23;5.90;79.40
21734;DHT22;11029;47.820;10.534;2023-04-25T15:36:49;5.90;79.00
21734;DHT22;11029;47.820;10.534;2023-04-25T15:39:16;5.80;78.50
21734;DHT22;11029;47.820;10.534;2023-04-25T15:41:43;5.70;77.80
21734;DHT22;11029;47.820;10.534;2023-04-25T15:44:10;5.80;77.30
21734;DHT22;11029;47.820;10.534;2023-04-25T15:46:37;6.70;75.30
21734;DHT22;11029;47.820;10.534;2023-04-25T15:49:04;7.40;72.10
21734;DHT22;11029;47.820;10.534;2023-04-25T15:51:31;8.20;69.10
21734;DHT22;11029;47.820;10.534;2023-04-25T15:53:59;7.80;69.70
21734;DHT22;11029;47.820;10.534;2023-04-25T15:56:27;7.20;70.60